Time;durP1;ratioP1;P1;durP2;ratioP2;P2;SDS_P1;SDS_P2;PMS_P1;PMS_P2;Temp;Humidity;BMP_temperature;BMP_pressure;BME280_temperature;BME280_humidity;BME280_pressure;Samples;Min_cycle;Max_cycle;Signal;HPM_P1;HPM_P2
2023/10/04 00:00:16;;;;;;;2.17;1.40;;;;;;;15.38;100.00;97494.63;5030876;28;102051;-75
2023/10/04 00:02:45;;;;;;;1.37;1.27;;;;;;;15.34;100.00;97493.50;5030690;28;105054;-75
2023/10/04 00:05:15;;;;;;;2.07;1.70;;;;;;;15.38;100.00;97491.94;5030100;28;105278;-75
2023/10/04 00:07:43;;;;;;;1.90;1.50;;;;;;;15.40;100.00;97493.31;5030100;28;101916;-75
2023/10/04 00:10:11;;;;;;;1.63;1.20;;;;;;;15.43;100.00;97492.78;5030435;28;105500;-75
2023/10/04 00:12:39;;;;;;;2.37;1.70;;;;;;;15.40;100.00;97493.31;5067437;27;105308;-76
2023/10/04 00:15:09;;;;;;;1.60;1.50;;;;;;;15.42;100.00;97490.38;5030611;28;105486;-76
2023/10/04 00:17:40;;;;;;;1.93;1.60;;;;;;;15.43;100.00;97487.41;5029344;27;105803;-76
2023/10/04 00:20:10;;;;;;;1.87;1.60;;;;;;;15.41;100.00;97478.00;5031973;28;101865;-75
2023/10/04 00:22:39;;;;;;;1.53;1.40;;;;;;;15.40;100.00;97484.44;5032009;28;102773;-75
2023/10/04 00:25:11;;;;;;;1.60;1.50;;;;;;;15.36;100.00;97483.34;5029862;28;105063;-74
2023/10/04 00:27:40;;;;;;;1.87;1.60;;;;;;;15.37;100.00;97484.97;5030605;28;101855;-73
2023/10/04 00:30:11;;;;;;;1.87;1.57;;;;;;;15.35;100.00;97489.75;5030345;28;104959;-73
2023/10/04 00:32:39;;;;;;;2.00;1.43;;;;;;;15.35;100.00;97487.06;5034547;28;103777;-73
2023/10/04 00:35:09;;;;;;;3.13;1.83;;;;;;;15.28;100.00;97489.13;5031496;27;102506;-73
2023/10/04 00:37:36;;;;;;;2.50;1.77;;;;;;;15.29;100.00;97488.06;5029478;28;105455;-73
2023/10/04 00:40:09;;;;;;;1.87;1.47;;;;;;;15.30;100.00;97481.63;5030301;28;102025;-73
2023/10/04 00:42:36;;;;;;;1.70;1.50;;;;;;;15.31;100.00;97483.28;5030254;28;105329;-73
2023/10/04 00:45:04;;;;;;;1.93;1.50;;;;;;;15.25;100.00;97481.56;5029461;28;105107;-73
2023/10/04 00:47:32;;;;;;;2.50;1.70;;;;;;;15.24;100.00;97479.97;5029985;28;101920;-74
2023/10/04 00:50:14;;;;;;;3.00;1.60;;;;;;;15.11;100.00;97475.00;5030234;28;103824;-75
2023/10/04 00:52:46;;;;;;;1.60;1.50;;;;;;;15.14;100.00;97475.31;5029328;28;105759;-75
2023/10/04 00:55:17;;;;;;;2.43;1.53;;;;;;;15.07;100.00;97481.94;5033678;28;101903;-75
2023/10/04 00:57:45;;;;;;;3.20;1.40;;;;;;;15.02;100.00;97479.19;5029559;28;105346;-75
2023/10/04 01:00:14;;;;;;;1.63;1.50;;;;;;;14.95;100.00;97478.59;5030379;28;102399;-75
2023/10/04 01:02:42;;;;;;;1.73;1.30;;;;;;;14.92;100.00;97484.44;5030836;28;102926;-75
2023/10/04 01:05:11;;;;;;;2.63;1.50;;;;;;;14.95;100.00;97478.59;5029015;28;105491;-75
2023/10/04 01:07:39;;;;;;;1.93;1.43;;;;;;;14.94;100.00;97479.66;5029467;28;101984;-75
2023/10/04 01:10:14;;;;;;;1.67;1.50;;;;;;;14.87;100.00;97479.84;5029596;28;105283;-75
2023/10/04 01:12:42;;;;;;;1.67;1.50;;;;;;;14.84;100.00;97482.22;5029317;28;105280;-74
2023/10/04 01:15:26;;;;;;;1.90;1.63;;;;;;;14.79;100.00;97474.13;5029466;28;102037;-73
2023/10/04 01:17:54;;;;;;;2.53;1.43;;;;;;;14.73;100.00;97473.28;5032569;28;104037;-73
2023/10/04 01:20:27;;;;;;;1.77;1.43;;;;;;;14.65;100.00;97476.38;5029740;28;101934;-73
2023/10/04 01:23:00;;;;;;;2.30;1.70;;;;;;;14.64;100.00;97468.56;5029780;28;105671;-73
2023/10/04 01:25:31;;;;;;;1.80;1.40;;;;;;;14.64;100.00;97468.56;5028895;28;104010;-73
2023/10/04 01:28:00;;;;;;;1.93;1.50;;;;;;;14.57;100.00;97459.94;5028684;27;101907;-73
2023/10/04 01:30:27;;;;;;;1.80;1.53;;;;;;;14.43;100.00;97451.47;5028362;27;104915;-73
2023/10/04 01:32:54;;;;;;;2.67;1.50;;;;;;;14.37;100.00;97457.81;5028673;28;106796;-73
2023/10/04 01:35:24;;;;;;;2.20;1.57;;;;;;;14.28;100.00;97466.53;5029557;28;101899;-73
2023/10/04 01:37:51;;;;;;;2.20;1.47;;;;;;;14.20;100.00;97462.41;5029454;28;105272;-73
2023/10/04 01:40:25;;;;;;;3.10;1.87;;;;;;;13.98;100.00;97466.06;5032278;28;105134;-74
2023/10/04 01:42:55;;;;;;;1.97;1.50;;;;;;;13.73;100.00;97463.81;5029074;28;105947;-74
2023/10/04 01:45:22;;;;;;;3.50;1.83;;;;;;;13.84;100.00;97459.44;5028606;28;104345;-74
2023/10/04 01:47:50;;;;;;;2.07;1.60;;;;;;;13.54;100.00;97467.78;5029235;28;101895;-74
2023/10/04 01:50:17;;;;;;;1.30;1.20;;;;;;;13.52;100.00;97461.84;5029065;28;104089;-74
2023/10/04 01:52:49;;;;;;;1.63;1.40;;;;;;;13.50;100.00;97457.81;5028482;28;105104;-74
2023/10/04 01:55:17;;;;;;;2.47;1.50;;;;;;;13.47;100.00;97458.31;5029297;28;101912;-73
2023/10/04 01:57:47;;;;;;;1.37;1.20;;;;;;;13.46;100.00;97456.69;5030509;27;102813;-73
2023/10/04 02:00:20;;;;;;;1.67;1.40;;;;;;;13.33;100.00;97460.47;5028315;28;105706;-73
2023/10/04 02:02:48;;;;;;;1.50;1.40;;;;;;;13.36;100.00;97457.31;5032465;28;102091;-73
2023/10/04 02:05:26;;;;;;;1.60;1.50;;;;;;;13.19;100.00;97456.47;5028177;28;105233;-73
2023/10/04 02:07:54;;;;;;;2.47;1.50;;;;;;;13.10;100.00;97446.44;5028739;28;101916;-73
2023/10/04 02:10:21;;;;;;;1.93;1.67;;;;;;;13.15;100.00;97444.69;5028799;28;105017;-73
2023/10/04 02:12:53;;;;;;;1.50;1.40;;;;;;;13.18;100.00;97443.38;5028436;28;103853;-73
2023/10/04 02:15:20;;;;;;;4.10;1.60;;;;;;;13.14;100.00;97439.56;5062836;27;101920;-73
2023/10/04 02:17:48;;;;;;;3.63;1.90;;;;;;;13.05;100.00;97443.69;5028938;28;105871;-73
2023/10/04 02:20:28;;;;;;;1.73;1.40;;;;;;;12.86;100.00;97442.25;5028312;28;103934;-73
2023/10/04 02:22:56;;;;;;;2.57;1.50;;;;;;;12.51;100.00;97453.03;5028597;28;102321;-73
2023/10/04 02:25:23;;;;;;;2.90;1.20;;;;;;;12.61;100.00;97441.75;5031713;28;105469;-73
2023/10/04 02:27:52;;;;;;;1.80;1.50;;;;;;;12.62;100.00;97438.84;5028705;28;101932;-74
2023/10/04 02:30:22;;;;;;;1.93;1.60;;;;;;;12.41;100.00;97436.00;5028487;28;105692;-74
2023/10/04 02:32:50;;;;;;;1.80;1.53;;;;;;;12.35;100.00;97437.75;5028034;28;105840;-74
2023/10/04 02:35:26;;;;;;;1.50;1.40;;;;;;;12.46;100.00;97436.91;5028636;28;102136;-73
2023/10/04 02:37:59;;;;;;;2.00;1.40;;;;;;;12.50;100.00;97439.91;5028735;28;105904;-73
2023/10/04 02:40:32;;;;;;;1.97;1.50;;;;;;;12.45;100.00;97442.50;5028555;27;104411;-73
2023/10/04 02:43:04;;;;;;;4.37;1.70;;;;;;;12.32;100.00;97437.44;5031920;28;101859;-73
2023/10/04 02:45:31;;;;;;;1.87;1.60;;;;;;;12.31;100.00;97439.28;5034977;28;104999;-74
2023/10/04 02:47:58;;;;;;;3.30;1.63;;;;;;;12.24;100.00;97435.13;5031928;28;101926;-73
2023/10/04 02:50:25;;;;;;;1.60;1.50;;;;;;;12.27;100.00;97440.00;5032008;28;105026;-73
2023/10/04 02:52:52;;;;;;;2.30;1.73;;;;;;;12.30;100.00;97445.66;5031395;28;105418;-73
2023/10/04 02:55:22;;;;;;;3.03;1.83;;;;;;;11.92;100.00;97449.88;5031954;28;101952;-73
2023/10/04 02:57:51;;;;;;;2.23;1.53;;;;;;;12.04;100.00;97448.03;5031700;28;104997;-73
2023/10/04 03:00:21;;;;;;;1.63;1.47;;;;;;;11.94;100.00;97440.59;5031132;28;105874;-73
2023/10/04 03:02:54;;;;;;;2.50;1.60;;;;;;;11.88;100.00;97443.41;5031673;28;101976;-73
2023/10/04 03:05:28;;;;;;;2.90;1.93;;;;;;;11.82;100.00;97442.47;5031842;28;105036;-73
2023/10/04 03:07:56;;;;;;;2.23;1.77;;;;;;;11.86;100.00;97445.47;5034244;28;105017;-73
2023/10/04 03:10:27;;;;;;;1.80;1.50;;;;;;;11.84;100.00;97445.69;5031543;28;105328;-73
2023/10/04 03:12:59;;;;;;;2.67;1.67;;;;;;;11.86;100.00;97453.47;5031020;28;104278;-73
2023/10/04 03:15:29;;;;;;;3.07;1.60;;;;;;;11.58;100.00;97440.00;5031798;28;101871;-73
2023/10/04 03:17:59;;;;;;;2.37;1.80;;;;;;;11.56;100.00;97444.75;5031646;28;105115;-75
2023/10/04 03:20:30;;;;;;;2.70;1.80;;;;;;;11.61;100.00;97442.25;5030965;28;105827;-75
2023/10/04 03:23:06;;;;;;;2.27;1.67;;;;;;;11.58;100.00;97448.00;5031469;28;102329;-74
2023/10/04 03:25:56;;;;;;;2.70;1.73;;;;;;;11.56;100.00;97442.09;5065569;27;104821;-73
2023/10/04 03:28:26;;;;;;;1.73;1.50;;;;;;;11.50;100.00;97448.34;5030689;28;105109;-73
2023/10/04 03:30:56;;;;;;;2.47;1.70;;;;;;;11.52;100.00;97456.91;5034793;28;101841;-73
2023/10/04 03:33:23;;;;;;;2.43;2.17;;;;;;;11.56;100.00;97450.88;5030890;28;105147;-75
2023/10/04 03:35:53;;;;;;;2.90;1.70;;;;;;;11.57;100.00;97452.53;5031217;28;101988;-74
2023/10/04 03:38:21;;;;;;;2.17;1.70;;;;;;;11.41;100.00;97447.03;5031420;28;105554;-74
2023/10/04 03:40:48;;;;;;;2.30;1.83;;;;;;;11.49;100.00;97452.84;5030652;28;105253;-73
2023/10/04 03:43:17;;;;;;;4.33;1.93;;;;;;;11.44;100.00;97449.28;5065108;27;102354;-73
2023/10/04 03:45:46;;;;;;;3.30;1.93;;;;;;;11.49;100.00;97452.84;5030970;28;104934;-74
2023/10/04 03:48:23;;;;;;;4.17;2.30;;;;;;;11.42;100.00;97452.16;5030604;28;105848;-74
2023/10/04 03:50:57;;;;;;;2.67;1.83;;;;;;;11.45;100.00;97451.69;5014990;28;101841;-75
2023/10/04 03:53:24;;;;;;;2.70;1.80;;;;;;;11.41;100.00;97449.72;5033783;27;104879;-75
2023/10/04 03:55:53;;;;;;;2.33;1.80;;;;;;;11.14;100.00;97454.66;5031817;28;101873;-75
2023/10/04 03:58:21;;;;;;;2.97;1.97;;;;;;;10.95;100.00;97452.28;5031132;28;105523;-75
2023/10/04 04:00:50;;;;;;;1.97;1.60;;;;;;;11.12;100.00;97453.25;5030162;28;105064;-74
2023/10/04 04:03:18;;;;;;;2.73;1.77;;;;;;;11.09;100.00;97449.19;5030737;28;101865;-74
2023/10/04 04:05:48;;;;;;;2.03;1.83;;;;;;;11.00;100.00;97452.38;5030688;28;105566;-74
2023/10/04 04:08:15;;;;;;;2.40;2.00;;;;;;;11.01;100.00;97444.19;5029824;28;105548;-74
2023/10/04 04:10:43;;;;;;;3.80;2.03;;;;;;;10.89;100.00;97451.31;5030157;28;101986;-74
2023/10/04 04:13:11;;;;;;;2.30;2.00;;;;;;;10.83;100.00;97446.06;5032067;28;103101;-74
2023/10/04 04:15:39;;;;;;;2.07;1.80;;;;;;;10.81;100.00;97448.16;5033657;28;106043;-74
2023/10/04 04:18:16;;;;;;;1.80;1.70;;;;;;;10.80;100.00;97444.69;5030573;28;105073;-74
2023/10/04 04:20:43;;;;;;;2.43;1.80;;;;;;;10.88;100.00;97446.22;5030028;28;105536;-74
2023/10/04 04:23:13;;;;;;;2.80;2.00;;;;;;;10.93;100.00;97457.00;5030509;28;102006;-74
2023/10/04 04:25:45;;;;;;;1.80;1.70;;;;;;;10.97;100.00;97458.16;5030536;28;104748;-74
2023/10/04 04:28:14;;;;;;;3.20;2.23;;;;;;;10.98;100.00;97457.13;5029874;28;105384;-74
2023/10/04 04:30:42;;;;;;;3.10;2.30;;;;;;;10.96;100.00;97460.00;5030585;28;101942;-74
2023/10/04 04:33:10;;;;;;;2.67;2.10;;;;;;;11.03;100.00;97466.06;5030570;28;105265;-73
2023/10/04 04:35:51;;;;;;;3.10;1.97;;;;;;;11.07;100.00;97464.56;5029809;28;104233;-73
2023/10/04 04:38:22;;;;;;;3.77;2.20;;;;;;;11.10;100.00;97463.28;5033652;28;101871;-73
2023/10/04 04:40:50;;;;;;;2.20;2.00;;;;;;;10.99;100.00;97458.75;5029659;28;105607;-73
2023/10/04 04:43:26;;;;;;;3.37;2.17;;;;;;;10.92;100.00;97460.69;5030447;28;102009;-73
2023/10/04 04:45:58;;;;;;;3.63;2.00;;;;;;;10.91;100.00;97467.06;5029961;28;105369;-73
2023/10/04 04:48:35;;;;;;;2.07;1.70;;;;;;;10.90;100.00;97463.56;5029665;28;105387;-73
2023/10/04 04:51:08;;;;;;;2.80;1.90;;;;;;;10.84;100.00;97453.06;5030127;28;102281;-73
2023/10/04 04:53:37;;;;;;;3.30;2.20;;;;;;;10.77;100.00;97461.13;5029973;28;105416;-73
2023/10/04 04:56:05;;;;;;;2.53;2.23;;;;;;;10.51;100.00;97465.94;5029586;28;105430;-73
2023/10/04 04:58:33;;;;;;;4.17;2.10;;;;;;;10.32;100.00;97459.03;5033705;28;102032;-73
2023/10/04 05:01:02;;;;;;;2.77;2.00;;;;;;;10.40;100.00;97462.19;5029348;28;105269;-73
2023/10/04 05:03:33;;;;;;;2.83;2.00;;;;;;;10.45;100.00;97459.69;5029951;27;101799;-73
2023/10/04 05:06:00;;;;;;;2.60;2.10;;;;;;;10.29;100.00;97464.78;5029876;28;105214;-73
2023/10/04 05:08:27;;;;;;;2.03;1.80;;;;;;;10.33;100.00;97465.97;5030194;28;102865;-73
2023/10/04 05:10:57;;;;;;;2.67;2.20;;;;;;;10.28;100.00;97465.81;5031026;28;102323;-73
2023/10/04 05:13:24;;;;;;;3.27;1.97;;;;;;;10.08;100.00;97473.22;5029906;28;104887;-73
2023/10/04 05:15:51;;;;;;;3.10;2.07;;;;;;;10.11;100.00;97480.72;5028980;28;105259;-73
2023/10/04 05:18:20;;;;;;;2.40;2.00;;;;;;;10.08;100.00;97479.31;5029554;28;102059;-73
2023/10/04 05:20:50;;;;;;;2.90;2.30;;;;;;;10.18;100.00;97484.94;5032399;28;104327;-73
2023/10/04 05:23:18;;;;;;;3.97;2.00;;;;;;;10.26;100.00;97494.47;5029415;28;101875;-73
2023/10/04 05:25:45;;;;;;;4.40;2.40;;;;;;;10.30;100.00;97499.13;5029585;28;105500;-73
2023/10/04 05:28:13;;;;;;;6.67;2.70;;;;;;;10.39;100.00;97505.78;5029001;28;105345;-73
2023/10/04 05:30:43;;;;;;;4.63;2.53;;;;;;;10.36;100.00;97505.41;5029338;28;102502;-73
2023/10/04 05:33:10;;;;;;;2.43;2.23;;;;;;;10.27;100.00;97504.91;5029446;28;104050;-73
2023/10/04 05:35:38;;;;;;;2.53;2.17;;;;;;;10.36;100.00;97508.88;5028981;28;105552;-73
2023/10/04 05:38:06;;;;;;;4.03;2.10;;;;;;;10.49;100.00;97505.25;5030535;28;101819;-73
2023/10/04 05:40:34;;;;;;;2.50;1.90;;;;;;;10.54;100.00;97511.56;5030856;27;102574;-73
2023/10/04 05:43:02;;;;;;;2.83;2.13;;;;;;;10.60;100.00;97509.81;5031898;28;106079;-73
2023/10/04 05:45:31;;;;;;;2.57;1.97;;;;;;;10.69;100.00;97511.94;5029366;28;104056;-73
2023/10/04 05:47:59;;;;;;;3.10;2.40;;;;;;;10.75;100.00;97512.94;5028862;28;105078;-73
2023/10/04 05:50:27;;;;;;;2.50;2.10;;;;;;;10.89;100.00;97515.19;5029053;28;101943;-73
2023/10/04 05:52:57;;;;;;;2.63;2.30;;;;;;;10.99;100.00;97509.31;5029132;28;105348;-73
2023/10/04 05:55:24;;;;;;;6.73;2.53;;;;;;;10.97;100.00;97514.06;5028506;28;105281;-73
2023/10/04 05:57:52;;;;;;;5.70;2.50;;;;;;;10.94;100.00;97523.31;5028919;28;101955;-73
2023/10/04 06:00:27;;;;;;;2.70;2.27;;;;;;;10.97;100.00;97511.41;5029062;28;105023;-73
2023/10/04 06:02:56;;;;;;;4.53;2.70;;;;;;;11.07;100.00;97512.47;5028392;28;105280;-73
2023/10/04 06:05:24;;;;;;;3.93;2.50;;;;;;;11.07;100.00;97523.13;5033636;27;101861;-73
2023/10/04 06:07:53;;;;;;;5.67;2.33;;;;;;;11.09;100.00;97515.75;5027815;28;105358;-73
2023/10/04 06:10:19;;;;;;;4.40;2.70;;;;;;;11.19;100.00;97520.50;5028818;28;102277;-73
2023/10/04 06:12:47;;;;;;;4.40;2.37;;;;;;;11.43;100.00;97520.34;5028817;28;105392;-73
2023/10/04 06:15:16;;;;;;;5.03;2.40;;;;;;;11.34;100.00;97518.25;5027702;28;105754;-73
2023/10/04 06:17:44;;;;;;;2.73;2.53;;;;;;;11.34;100.00;97524.38;5028714;28;101912;-73
2023/10/04 06:20:24;;;;;;;3.90;2.10;;;;;;;11.38;100.00;97533.53;5028609;28;105099;-73
2023/10/04 06:22:53;;;;;;;5.40;2.97;;;;;;;11.58;100.00;97538.56;5028251;28;105523;-73
2023/10/04 06:25:22;;;;;;;2.77;2.20;;;;;;;11.77;100.00;97538.28;5029813;28;101710;-73
2023/10/04 06:27:50;;;;;;;5.30;2.80;;;;;;;11.97;100.00;97551.28;5031470;28;105219;-72
2023/10/04 06:30:21;;;;;;;3.13;2.37;;;;;;;12.08;100.00;97548.63;5029910;28;101819;-73
2023/10/04 06:32:49;;;;;;;6.37;2.70;;;;;;;12.09;100.00;97562.78;5028588;28;105638;-73
2023/10/04 06:35:18;;;;;;;3.83;2.77;;;;;;;12.25;100.00;97564.75;5027923;28;105667;-73
2023/10/04 06:37:45;;;;;;;4.33;2.80;;;;;;;12.46;100.00;97559.66;5028580;28;101968;-73
2023/10/04 06:40:16;;;;;;;3.90;2.57;;;;;;;12.60;100.00;97563.69;5028453;28;105114;-73
2023/10/04 06:42:47;;;;;;;6.10;2.80;;;;;;;12.82;100.00;97566.56;5027953;28;105961;-73
2023/10/04 06:45:14;;;;;;;5.47;2.50;;;;;;;12.98;100.00;97574.66;5028473;28;101967;-73
2023/10/04 06:47:44;;;;;;;5.83;2.87;;;;;;;13.11;100.00;97577.06;5029840;28;102631;-73
2023/10/04 06:50:14;;;;;;;3.40;2.57;;;;;;;13.22;100.00;97568.22;5031062;28;102113;-73
2023/10/04 06:52:44;;;;;;;4.43;2.30;;;;;;;13.22;100.00;97564.72;5028525;28;103780;-73
2023/10/04 06:55:12;;;;;;;3.27;2.30;;;;;;;13.11;100.00;97565.56;5027638;28;105976;-73
2023/10/04 06:57:43;;;;;;;5.07;2.93;;;;;;;13.11;100.00;97565.56;5028279;28;101784;-73
2023/10/04 07:00:15;;;;;;;4.43;2.57;;;;;;;13.19;100.00;97567.88;5028310;28;105047;-73
2023/10/04 07:02:43;;;;;;;2.63;1.97;;;;;;;13.26;100.00;97569.38;5027671;28;105491;-73
2023/10/04 07:05:13;;;;;;;3.40;2.20;;;;;;;13.46;100.00;97558.25;5029320;28;102014;-73
2023/10/04 07:07:40;;;;;;;3.17;2.20;;;;;;;13.65;100.00;97556.97;5028052;28;104979;-73
2023/10/04 07:10:13;;;;;;;2.00;1.80;;;;;;;13.79;100.00;97558.28;5030706;28;105812;-73
2023/10/04 07:12:40;;;;;;;1.80;1.70;;;;;;;13.68;100.00;97567.19;5029790;27;102648;-73
2023/10/04 07:15:10;;;;;;;1.77;1.60;;;;;;;13.67;100.00;97561.00;5027475;28;105096;-73
2023/10/04 07:17:38;;;;;;;3.00;1.73;;;;;;;13.79;100.00;97574.34;5029353;28;101845;-73
2023/10/04 07:20:07;;;;;;;4.43;1.90;;;;;;;14.11;100.00;97564.69;5027967;28;105213;-73
2023/10/04 07:22:36;;;;;;;3.17;2.20;;;;;;;14.32;100.00;97569.31;5028851;27;102807;-73
2023/10/04 07:25:03;;;;;;;7.20;2.50;;;;;;;14.12;100.00;97563.66;5027778;28;102330;-72
2023/10/04 07:27:31;;;;;;;5.87;2.20;;;;;;;14.17;100.00;97574.41;5030074;27;102809;-72
2023/10/04 07:29:59;;;;;;;4.03;2.00;;;;;;;14.31;100.00;97565.84;5030833;28;104735;-72
2023/10/04 07:32:26;;;;;;;4.27;2.17;;;;;;;14.56;100.00;97570.75;5034655;28;102008;-72
2023/10/04 07:34:53;;;;;;;2.27;1.93;;;;;;;14.73;100.00;97576.88;5030583;28;105778;-72
2023/10/04 07:37:20;;;;;;;4.73;2.10;;;;;;;14.66;100.00;97570.91;5032725;28;101851;-72
2023/10/04 07:39:47;;;;;;;6.73;2.20;;;;;;;14.99;100.00;97570.78;5031310;28;105638;-73
2023/10/04 07:42:14;;;;;;;4.80;2.23;;;;;;;15.17;100.00;97568.63;5030479;28;106012;-73
2023/10/04 07:44:43;;;;;;;2.23;1.97;;;;;;;15.42;100.00;97570.78;5031136;28;102278;-73
2023/10/04 07:47:10;;;;;;;2.67;2.07;;;;;;;15.44;100.00;97574.03;5031357;28;105193;-73
2023/10/04 07:49:37;;;;;;;2.90;1.70;;;;;;;15.64;100.00;97564.31;5030636;28;105151;-73
2023/10/04 07:52:04;;;;;;;3.07;1.80;;;;;;;15.69;100.00;97566.25;5031040;28;101929;-73
2023/10/04 07:54:34;;;;;;;3.73;2.30;;;;;;;15.42;100.00;97562.75;5033794;28;105283;-73
2023/10/04 07:57:03;;;;;;;4.93;2.53;;;;;;;15.46;100.00;97561.16;5032259;28;102321;-73
2023/10/04 07:59:30;;;;;;;3.00;2.20;;;;;;;15.57;100.00;97562.88;5032201;27;102832;-73
2023/10/04 08:01:59;;;;;;;3.70;2.37;;;;;;;15.92;100.00;97561.34;5030258;28;105870;-72
2023/10/04 08:04:26;;;;;;;3.43;2.00;;;;;;;16.01;100.00;97565.19;5030886;28;101950;-72
2023/10/04 08:06:53;;;;;;;2.90;1.87;;;;;;;16.08;100.00;97548.88;5030266;28;105559;-72
2023/10/04 08:09:21;;;;;;;2.67;1.80;;;;;;;15.92;100.00;97545.25;5030025;28;105968;-72
2023/10/04 08:11:51;;;;;;;2.87;2.00;;;;;;;15.95;100.00;97552.78;5030536;28;101942;-73
2023/10/04 08:14:21;;;;;;;2.47;1.93;;;;;;;16.19;100.00;97546.00;5030638;28;105383;-72
2023/10/04 08:16:50;;;;;;;2.60;2.03;;;;;;;16.63;100.00;97551.97;5034470;27;102825;-73
2023/10/04 08:19:18;;;;;;;3.60;2.13;;;;;;;16.72;100.00;97545.00;5030769;28;105056;-73
2023/10/04 08:21:46;;;;;;;2.90;1.87;;;;;;;17.06;100.00;97543.59;5029969;28;105947;-73
2023/10/04 08:24:14;;;;;;;2.60;2.07;;;;;;;16.76;100.00;97548.81;5030501;28;101872;-73
2023/10/04 08:26:42;;;;;;;3.90;1.80;;;;;;;16.87;100.00;97553.16;5030451;28;105144;-72
2023/10/04 08:29:09;;;;;;;2.60;2.03;;;;;;;16.74;100.00;97538.31;5031397;27;103080;-72
2023/10/04 08:31:36;;;;;;;2.43;1.90;;;;;;;16.34;100.00;97542.59;5030451;28;102568;-73
2023/10/04 08:34:03;;;;;;;2.37;1.90;;;;;;;16.40;100.00;97547.78;5030348;28;105236;-73
2023/10/04 08:36:33;;;;;;;1.97;1.77;;;;;;;16.83;100.00;97541.31;5029800;28;105596;-73
2023/10/04 08:39:10;;;;;;;2.00;1.63;;;;;;;17.13;100.00;97536.91;5033585;28;101944;-73
2023/10/04 08:41:38;;;;;;;2.40;1.60;;;;;;;17.28;100.00;97534.22;5029612;28;105596;-73
2023/10/04 08:44:07;;;;;;;2.23;1.80;;;;;;;17.51;100.00;97530.28;5031666;27;101877;-73
2023/10/04 08:46:37;;;;;;;2.20;1.63;;;;;;;17.76;100.00;97530.34;5030003;28;105281;-73
2023/10/04 08:49:10;;;;;;;3.13;1.60;;;;;;;17.86;100.00;97531.16;5029605;28;105152;-72
2023/10/04 08:51:50;;;;;;;2.07;1.60;;;;;;;17.95;100.00;97536.78;5030166;28;101790;-73
2023/10/04 08:54:22;;;;;;;2.50;1.87;;;;;;;18.24;100.00;97533.28;5030126;28;105530;-73
2023/10/04 08:56:54;;;;;;;3.67;1.60;;;;;;;18.37;100.00;97523.88;5030979;27;102829;-73
2023/10/04 08:59:22;;;;;;;2.67;1.50;;;;;;;18.54;100.00;97524.38;5033540;28;101922;-72
2023/10/04 09:01:50;;;;;;;4.73;1.80;;;;;;;18.82;100.00;97518.38;5029412;28;105655;-72
2023/10/04 09:04:20;;;;;;;2.20;1.67;;;;;;;18.93;100.00;97517.25;5031122;27;101910;-73
2023/10/04 09:06:49;;;;;;;2.33;1.70;;;;;;;18.91;100.00;97505.94;5029331;28;105760;-73
2023/10/04 09:09:18;;;;;;;1.93;1.60;;;;;;;19.16;100.00;97513.91;5029063;28;105440;-73
2023/10/04 09:11:45;;;;;;;3.67;1.77;;;;;;;19.55;100.00;97501.31;5029624;28;101942;-73
2023/10/04 09:14:14;;;;;;;2.13;1.80;;;;;;;19.89;100.00;97502.94;5029735;28;105562;-73
2023/10/04 09:16:40;;;;;;;3.23;2.00;;;;;;;19.49;100.00;97502.41;5029052;28;104121;-72
2023/10/04 09:19:09;;;;;;;2.63;1.57;;;;;;;19.86;100.00;97505.41;5029781;28;102515;-72
2023/10/04 09:21:38;;;;;;;2.90;1.70;;;;;;;19.31;100.00;97506.59;5032584;28;104947;-72
2023/10/04 09:24:09;;;;;;;3.17;2.10;;;;;;;19.19;100.00;97499.88;5029419;28;101977;-73
2023/10/04 09:26:37;;;;;;;2.53;1.70;;;;;;;19.83;100.00;97498.66;5031211;28;103025;-73
2023/10/04 09:29:06;;;;;;;3.90;1.67;;;;;;;19.81;100.00;97495.47;5029000;28;104337;-73
2023/10/04 09:31:47;;;;;;;3.00;1.53;;;;;;;19.89;100.00;97494.06;5030829;27;101881;-73
2023/10/04 09:34:14;;;;;;;3.63;2.03;;;;;;;20.16;100.00;97492.47;5029631;28;105660;-73
2023/10/04 09:36:42;;;;;;;1.83;1.60;;;;;;;20.07;100.00;97501.47;5029017;28;106009;-72
2023/10/04 09:39:13;;;;;;;2.20;1.80;;;;;;;19.94;100.00;97499.41;5029466;28;101853;-73
2023/10/04 09:41:42;;;;;;;3.03;2.10;;;;;;;20.12;100.00;97496.03;5030930;28;103019;-72
2023/10/04 09:44:23;;;;;;;3.90;1.70;;;;;;;20.18;100.00;97484.91;5033236;27;103068;-73
2023/10/04 09:46:54;;;;;;;4.97;1.90;;;;;;;19.95;100.00;97485.59;5030892;28;102911;-73
2023/10/04 09:49:22;;;;;;;2.60;1.90;;;;;;;19.72;100.00;97482.84;5028864;28;105059;-73
2023/10/04 09:51:50;;;;;;;3.63;2.03;;;;;;;18.88;100.00;97485.75;5029672;28;101758;-73
2023/10/04 09:54:19;;;;;;;2.07;1.80;;;;;;;18.05;100.00;97483.75;5028942;28;105099;-73
2023/10/04 09:56:47;;;;;;;2.60;2.10;;;;;;;18.04;100.00;97484.03;5028497;28;105683;-73
2023/10/04 09:59:19;;;;;;;3.40;2.10;;;;;;;18.42;100.00;97484.25;5028964;28;101902;-73
2023/10/04 10:01:52;;;;;;;3.33;1.83;;;;;;;18.52;100.00;97480.75;5030255;28;102628;-73
2023/10/04 10:04:25;;;;;;;2.80;2.03;;;;;;;18.92;100.00;97491.38;5028406;28;105645;-73
2023/10/04 10:07:09;;;;;;;2.30;1.90;;;;;;;18.13;100.00;97491.28;5031909;28;101944;-72
2023/10/04 10:09:46;;;;;;;2.70;2.00;;;;;;;18.69;100.00;97481.25;5028488;28;105318;-72
2023/10/04 10:12:15;;;;;;;3.07;2.77;;;;;;;18.68;100.00;97487.69;5028982;28;101791;-73
2023/10/04 10:14:45;;;;;;;2.90;2.00;;;;;;;18.81;100.00;97490.59;5028965;28;104071;-73
2023/10/04 10:17:12;;;;;;;1.83;1.63;;;;;;;18.80;100.00;97488.19;5028113;28;105259;-73
2023/10/04 10:19:39;;;;;;;2.03;1.53;;;;;;;18.85;100.00;97488.19;5028977;28;101934;-73
2023/10/04 10:22:11;;;;;;;2.50;1.53;;;;;;;18.65;100.00;97489.03;5028901;28;105270;-73
2023/10/04 10:24:48;;;;;;;3.17;2.13;;;;;;;18.72;100.00;97480.66;5028221;28;105798;-73
2023/10/04 10:27:19;;;;;;;2.10;1.80;;;;;;;19.31;100.00;97465.31;5028648;28;101787;-73
2023/10/04 10:29:47;;;;;;;2.13;1.60;;;;;;;19.24;100.00;97465.63;5031592;28;105542;-73
2023/10/04 10:32:17;;;;;;;2.93;1.90;;;;;;;19.37;100.00;97464.19;5030155;28;102275;-73
2023/10/04 10:34:44;;;;;;;2.13;1.93;;;;;;;19.30;100.00;97461.00;5030019;27;102680;-73
2023/10/04 10:37:19;;;;;;;3.43;2.10;;;;;;;19.78;100.00;97465.53;5011392;28;105689;-72
2023/10/04 10:39:50;;;;;;;2.20;1.70;;;;;;;20.01;100.00;97456.69;5028311;27;102143;-73
2023/10/04 10:42:18;;;;;;;2.97;1.70;;;;;;;20.39;100.00;97453.09;5028403;28;105934;-72
2023/10/04 10:44:45;;;;;;;2.90;2.20;;;;;;;20.56;100.00;97448.03;5027778;28;105364;-73
2023/10/04 10:47:15;;;;;;;2.70;1.80;;;;;;;20.79;100.00;97452.59;5028447;28;102293;-73
2023/10/04 10:49:44;;;;;;;2.30;1.70;;;;;;;20.71;100.00;97450.56;5029661;28;103020;-72
2023/10/04 10:52:21;;;;;;;3.10;1.80;;;;;;;20.45;100.00;97441.13;5031188;28;105533;-73
2023/10/04 10:54:50;;;;;;;2.17;1.90;;;;;;;20.83;100.00;97430.13;5028390;28;105252;-72
2023/10/04 10:57:18;;;;;;;2.63;1.70;;;;;;;20.81;100.00;97429.59;5027596;28;104305;-73
2023/10/04 10:59:46;;;;;;;2.40;1.60;;;;;;;21.32;100.00;97427.84;5028452;28;102021;-73
2023/10/04 11:02:13;;;;;;;2.17;1.50;;;;;;;20.30;100.00;97420.50;5029847;28;105296;-73
2023/10/04 11:04:40;;;;;;;2.00;1.80;;;;;;;20.65;100.00;97419.28;5031323;28;105703;-73
2023/10/04 11:07:08;;;;;;;2.17;1.50;;;;;;;21.17;96.81;97409.13;5031353;28;102031;-73
2023/10/04 11:09:38;;;;;;;3.03;1.83;;;;;;;20.71;98.07;97405.38;5031960;28;104817;-73
2023/10/04 11:12:08;;;;;;;2.50;2.00;;;;;;;20.89;96.46;97399.25;5034472;28;105677;-73
2023/10/04 11:14:36;;;;;;;2.13;1.57;;;;;;;21.23;100.00;97396.31;5031856;28;105352;-73
2023/10/04 11:17:05;;;;;;;3.10;1.90;;;;;;;21.30;85.16;97394.06;5030962;28;104343;-73
2023/10/04 11:19:32;;;;;;;2.20;1.60;;;;;;;22.08;85.04;97384.09;5031627;28;101929;-73
2023/10/04 11:22:02;;;;;;;2.77;1.70;;;;;;;22.23;86.24;97376.47;5031627;28;104867;-73
2023/10/04 11:24:30;;;;;;;2.33;1.50;;;;;;;22.00;83.10;97379.34;5030904;28;105663;-73
2023/10/04 11:26:57;;;;;;;3.37;1.40;;;;;;;21.92;92.43;97374.63;5031127;28;101928;-73